sensor_id;sensor_type;location;lat;lon;timestamp;P1;durP1;ratioP1;P2;durP2;ratioP2
13238;SDS011;6686;51.292;4.166;2023-05-07T00:01:48;9.00;;;7.70;;
13238;SDS011;6686;51.292;4.166;2023-05-07T00:04:34;9.70;;;8.15;;
13238;SDS011;6686;51.292;4.166;2023-05-07T00:07:20;10.05;;;8.02;;
13238;SDS011;6686;51.292;4.166;2023-05-07T00:10:06;9.70;;;7.67;;
13238;SDS011;6686;51.292;4.166;2023-05-07T00:12:52;9.83;;;7.67;;
13238;SDS011;6686;51.292;4.166;2023-05-07T00:15:38;9.00;;;8.10;;
13238;SDS011;6686;51.292;4.166;2023-05-07T00:18:24;11.17;;;7.87;;
13238;SDS011;6686;51.292;4.166;2023-05-07T00:21:10;9.97;;;8.27;;
13238;SDS011;6686;51.292;4.166;2023-05-07T00:23:57;10.03;;;8.17;;
13238;SDS011;6686;51.292;4.166;2023-05-07T00:26:43;10.90;;;8.43;;
13238;SDS011;6686;51.292;4.166;2023-05-07T00:29:29;8.67;;;7.77;;
13238;SDS011;6686;51.292;4.166;2023-05-07T00:32:15;9.97;;;7.93;;
13238;SDS011;6686;51.292;4.166;2023-05-07T00:35:01;11.53;;;7.87;;
13238;SDS011;6686;51.292;4.166;2023-05-07T00:37:47;9.90;;;8.13;;
13238;SDS011;6686;51.292;4.166;2023-05-07T00:40:33;13.80;;;8.50;;
13238;SDS011;6686;51.292;4.166;2023-05-07T00:43:19;10.13;;;7.77;;
13238;SDS011;6686;51.292;4.166;2023-05-07T00:46:04;10.83;;;8.30;;
13238;SDS011;6686;51.292;4.166;2023-05-07T00:48:50;10.03;;;8.60;;
13238;SDS011;6686;51.292;4.166;2023-05-07T00:51:36;11.07;;;8.20;;
13238;SDS011;6686;51.292;4.166;2023-05-07T00:54:22;10.17;;;8.37;;
13238;SDS011;6686;51.292;4.166;2023-05-07T00:57:08;9.83;;;8.10;;
13238;SDS011;6686;51.292;4.166;2023-05-07T00:59:54;10.40;;;9.30;;
13238;SDS011;6686;51.292;4.166;2023-05-07T01:02:40;11.13;;;8.53;;
13238;SDS011;6686;51.292;4.166;2023-05-07T01:05:25;10.63;;;8.30;;
13238;SDS011;6686;51.292;4.166;2023-05-07T01:08:11;9.13;;;8.23;;
13238;SDS011;6686;51.292;4.166;2023-05-07T01:13:36;10.93;;;8.60;;
13238;SDS011;6686;51.292;4.166;2023-05-07T01:16:22;9.03;;;7.97;;
13238;SDS011;6686;51.292;4.166;2023-05-07T01:19:08;11.02;;;9.02;;
13238;SDS011;6686;51.292;4.166;2023-05-07T01:21:53;9.60;;;8.57;;
13238;SDS011;6686;51.292;4.166;2023-05-07T01:24:39;11.10;;;9.88;;
13238;SDS011;6686;51.292;4.166;2023-05-07T01:27:25;12.18;;;9.95;;
13238;SDS011;6686;51.292;4.166;2023-05-07T01:30:11;9.67;;;8.63;;
13238;SDS011;6686;51.292;4.166;2023-05-07T01:32:58;10.27;;;8.77;;
13238;SDS011;6686;51.292;4.166;2023-05-07T01:35:43;13.20;;;9.30;;
13238;SDS011;6686;51.292;4.166;2023-05-07T01:38:29;11.20;;;7.97;;
13238;SDS011;6686;51.292;4.166;2023-05-07T01:41:15;11.20;;;8.67;;
13238;SDS011;6686;51.292;4.166;2023-05-07T01:44:01;10.13;;;8.20;;
13238;SDS011;6686;51.292;4.166;2023-05-07T01:46:47;12.25;;;9.20;;
13238;SDS011;6686;51.292;4.166;2023-05-07T01:49:32;9.67;;;8.50;;
13238;SDS011;6686;51.292;4.166;2023-05-07T01:52:19;10.70;;;9.57;;
13238;SDS011;6686;51.292;4.166;2023-05-07T01:55:05;9.67;;;8.73;;
13238;SDS011;6686;51.292;4.166;2023-05-07T01:57:50;11.47;;;8.77;;
13238;SDS011;6686;51.292;4.166;2023-05-07T02:00:36;9.63;;;8.63;;
13238;SDS011;6686;51.292;4.166;2023-05-07T02:03:22;8.47;;;7.70;;
13238;SDS011;6686;51.292;4.166;2023-05-07T02:06:08;11.37;;;8.73;;
13238;SDS011;6686;51.292;4.166;2023-05-07T02:08:54;10.23;;;9.07;;
13238;SDS011;6686;51.292;4.166;2023-05-07T02:11:39;10.83;;;9.23;;
13238;SDS011;6686;51.292;4.166;2023-05-07T02:14:25;11.97;;;9.40;;
13238;SDS011;6686;51.292;4.166;2023-05-07T02:17:11;10.50;;;9.10;;
13238;SDS011;6686;51.292;4.166;2023-05-07T02:19:57;11.63;;;9.27;;
13238;SDS011;6686;51.292;4.166;2023-05-07T02:22:42;10.93;;;9.20;;
13238;SDS011;6686;51.292;4.166;2023-05-07T02:25:28;10.20;;;9.23;;
13238;SDS011;6686;51.292;4.166;2023-05-07T02:28:14;11.80;;;9.93;;
13238;SDS011;6686;51.292;4.166;2023-05-07T02:31:02;11.30;;;9.43;;
13238;SDS011;6686;51.292;4.166;2023-05-07T02:33:49;11.20;;;9.77;;
13238;SDS011;6686;51.292;4.166;2023-05-07T02:36:35;11.10;;;10.00;;
13238;SDS011;6686;51.292;4.166;2023-05-07T02:39:20;11.27;;;10.13;;
13238;SDS011;6686;51.292;4.166;2023-05-07T02:42:06;12.50;;;9.80;;
13238;SDS011;6686;51.292;4.166;2023-05-07T02:44:52;11.67;;;10.47;;
13238;SDS011;6686;51.292;4.166;2023-05-07T02:47:38;13.57;;;11.23;;
13238;SDS011;6686;51.292;4.166;2023-05-07T02:50:23;12.13;;;10.10;;
13238;SDS011;6686;51.292;4.166;2023-05-07T02:53:09;16.83;;;10.57;;
13238;SDS011;6686;51.292;4.166;2023-05-07T02:55:56;14.93;;;10.70;;
13238;SDS011;6686;51.292;4.166;2023-05-07T02:58:42;11.87;;;9.63;;
13238;SDS011;6686;51.292;4.166;2023-05-07T03:01:28;11.37;;;10.10;;
13238;SDS011;6686;51.292;4.166;2023-05-07T03:04:14;12.37;;;10.43;;
13238;SDS011;6686;51.292;4.166;2023-05-07T03:07:00;12.50;;;9.67;;
13238;SDS011;6686;51.292;4.166;2023-05-07T03:09:46;13.27;;;11.30;;
13238;SDS011;6686;51.292;4.166;2023-05-07T03:12:32;12.23;;;10.80;;
13238;SDS011;6686;51.292;4.166;2023-05-07T03:15:17;10.13;;;9.07;;
13238;SDS011;6686;51.292;4.166;2023-05-07T03:18:03;11.05;;;10.02;;
13238;SDS011;6686;51.292;4.166;2023-05-07T03:20:51;12.60;;;10.13;;
13238;SDS011;6686;51.292;4.166;2023-05-07T03:23:35;10.70;;;9.57;;
13238;SDS011;6686;51.292;4.166;2023-05-07T03:26:21;12.30;;;10.07;;
13238;SDS011;6686;51.292;4.166;2023-05-07T03:29:07;11.20;;;10.00;;
13238;SDS011;6686;51.292;4.166;2023-05-07T03:31:53;10.07;;;9.07;;
13238;SDS011;6686;51.292;4.166;2023-05-07T03:34:39;11.37;;;10.23;;
13238;SDS011;6686;51.292;4.166;2023-05-07T03:37:25;13.20;;;9.77;;
13238;SDS011;6686;51.292;4.166;2023-05-07T03:40:11;11.73;;;10.50;;
13238;SDS011;6686;51.292;4.166;2023-05-07T03:42:57;11.10;;;9.97;;
13238;SDS011;6686;51.292;4.166;2023-05-07T03:45:43;11.30;;;10.20;;
13238;SDS011;6686;51.292;4.166;2023-05-07T03:48:29;12.00;;;10.80;;
13238;SDS011;6686;51.292;4.166;2023-05-07T03:51:14;12.67;;;10.50;;
13238;SDS011;6686;51.292;4.166;2023-05-07T03:54:00;13.27;;;10.00;;
13238;SDS011;6686;51.292;4.166;2023-05-07T03:56:46;12.17;;;10.10;;
13238;SDS011;6686;51.292;4.166;2023-05-07T03:59:32;11.33;;;10.23;;
13238;SDS011;6686;51.292;4.166;2023-05-07T04:02:18;12.43;;;11.10;;
13238;SDS011;6686;51.292;4.166;2023-05-07T04:05:04;13.47;;;11.23;;
13238;SDS011;6686;51.292;4.166;2023-05-07T04:07:50;14.43;;;11.97;;
13238;SDS011;6686;51.292;4.166;2023-05-07T04:10:36;12.17;;;10.97;;
13238;SDS011;6686;51.292;4.166;2023-05-07T04:13:21;12.70;;;11.43;;
13238;SDS011;6686;51.292;4.166;2023-05-07T04:16:08;12.83;;;11.47;;
13238;SDS011;6686;51.292;4.166;2023-05-07T04:18:54;11.53;;;10.43;;
13238;SDS011;6686;51.292;4.166;2023-05-07T04:21:39;14.83;;;11.07;;
13238;SDS011;6686;51.292;4.166;2023-05-07T04:24:26;11.80;;;10.67;;
13238;SDS011;6686;51.292;4.166;2023-05-07T04:27:11;13.10;;;9.80;;
13238;SDS011;6686;51.292;4.166;2023-05-07T04:29:57;13.30;;;11.27;;
13238;SDS011;6686;51.292;4.166;2023-05-07T04:32:43;11.97;;;10.70;;
13238;SDS011;6686;51.292;4.166;2023-05-07T04:35:29;13.27;;;11.87;;
13238;SDS011;6686;51.292;4.166;2023-05-07T04:38:15;12.70;;;11.37;;
13238;SDS011;6686;51.292;4.166;2023-05-07T04:41:04;12.43;;;11.13;;
13238;SDS011;6686;51.292;4.166;2023-05-07T04:43:50;12.67;;;10.90;;
13238;SDS011;6686;51.292;4.166;2023-05-07T04:46:36;12.70;;;11.40;;
13238;SDS011;6686;51.292;4.166;2023-05-07T04:49:22;13.10;;;11.33;;
13238;SDS011;6686;51.292;4.166;2023-05-07T04:52:07;12.80;;;11.60;;
13238;SDS011;6686;51.292;4.166;2023-05-07T04:54:53;13.10;;;11.70;;
13238;SDS011;6686;51.292;4.166;2023-05-07T04:57:40;12.83;;;11.53;;
13238;SDS011;6686;51.292;4.166;2023-05-07T05:00:25;11.87;;;10.20;;
13238;SDS011;6686;51.292;4.166;2023-05-07T05:03:11;11.33;;;9.87;;
13238;SDS011;6686;51.292;4.166;2023-05-07T05:05:57;11.13;;;10.00;;
13238;SDS011;6686;51.292;4.166;2023-05-07T05:08:43;11.03;;;9.93;;
13238;SDS011;6686;51.292;4.166;2023-05-07T05:11:29;12.53;;;10.20;;
13238;SDS011;6686;51.292;4.166;2023-05-07T05:14:15;12.33;;;10.80;;
13238;SDS011;6686;51.292;4.166;2023-05-07T05:17:01;12.47;;;11.30;;
13238;SDS011;6686;51.292;4.166;2023-05-07T05:19:46;12.27;;;11.07;;
13238;SDS011;6686;51.292;4.166;2023-05-07T05:22:32;10.37;;;9.33;;
13238;SDS011;6686;51.292;4.166;2023-05-07T05:25:18;12.48;;;11.27;;
13238;SDS011;6686;51.292;4.166;2023-05-07T05:28:04;10.20;;;9.30;;
13238;SDS011;6686;51.292;4.166;2023-05-07T05:30:50;11.00;;;9.90;;
13238;SDS011;6686;51.292;4.166;2023-05-07T05:33:36;11.73;;;9.57;;
13238;SDS011;6686;51.292;4.166;2023-05-07T05:36:22;10.13;;;9.17;;
13238;SDS011;6686;51.292;4.166;2023-05-07T05:39:08;10.53;;;9.53;;
13238;SDS011;6686;51.292;4.166;2023-05-07T05:41:54;12.55;;;11.45;;
13238;SDS011;6686;51.292;4.166;2023-05-07T05:44:40;11.67;;;10.43;;
13238;SDS011;6686;51.292;4.166;2023-05-07T05:47:26;10.87;;;9.83;;
13238;SDS011;6686;51.292;4.166;2023-05-07T05:50:12;34.72;;;28.52;;
13238;SDS011;6686;51.292;4.166;2023-05-07T05:52:58;12.10;;;10.00;;
13238;SDS011;6686;51.292;4.166;2023-05-07T05:55:44;11.07;;;10.07;;
13238;SDS011;6686;51.292;4.166;2023-05-07T05:58:30;12.03;;;10.93;;
13238;SDS011;6686;51.292;4.166;2023-05-07T06:01:16;11.47;;;10.27;;
13238;SDS011;6686;51.292;4.166;2023-05-07T06:04:01;10.57;;;9.57;;
13238;SDS011;6686;51.292;4.166;2023-05-07T06:06:47;10.13;;;9.13;;
13238;SDS011;6686;51.292;4.166;2023-05-07T06:09:33;11.03;;;10.03;;
13238;SDS011;6686;51.292;4.166;2023-05-07T06:12:19;13.02;;;11.57;;
13238;SDS011;6686;51.292;4.166;2023-05-07T06:15:05;11.93;;;10.67;;
13238;SDS011;6686;51.292;4.166;2023-05-07T06:17:51;11.80;;;10.67;;
13238;SDS011;6686;51.292;4.166;2023-05-07T06:20:38;13.73;;;10.87;;
13238;SDS011;6686;51.292;4.166;2023-05-07T06:23:23;12.10;;;10.90;;
13238;SDS011;6686;51.292;4.166;2023-05-07T06:26:09;14.45;;;13.05;;
13238;SDS011;6686;51.292;4.166;2023-05-07T06:28:55;13.90;;;12.50;;
13238;SDS011;6686;51.292;4.166;2023-05-07T06:31:41;13.03;;;11.03;;
13238;SDS011;6686;51.292;4.166;2023-05-07T06:34:27;12.07;;;10.93;;
13238;SDS011;6686;51.292;4.166;2023-05-07T06:37:13;13.83;;;12.43;;
13238;SDS011;6686;51.292;4.166;2023-05-07T06:39:59;12.80;;;11.70;;
13238;SDS011;6686;51.292;4.166;2023-05-07T06:42:45;13.37;;;11.97;;
13238;SDS011;6686;51.292;4.166;2023-05-07T06:45:31;13.63;;;12.10;;
13238;SDS011;6686;51.292;4.166;2023-05-07T06:48:17;15.70;;;14.10;;
13238;SDS011;6686;51.292;4.166;2023-05-07T06:51:03;15.83;;;13.93;;
13238;SDS011;6686;51.292;4.166;2023-05-07T06:53:48;14.03;;;12.73;;
13238;SDS011;6686;51.292;4.166;2023-05-07T06:56:34;12.63;;;11.50;;
13238;SDS011;6686;51.292;4.166;2023-05-07T06:59:20;16.73;;;14.80;;
13238;SDS011;6686;51.292;4.166;2023-05-07T07:02:06;14.17;;;12.87;;
13238;SDS011;6686;51.292;4.166;2023-05-07T07:04:51;17.80;;;15.33;;
13238;SDS011;6686;51.292;4.166;2023-05-07T07:07:37;16.97;;;15.17;;
13238;SDS011;6686;51.292;4.166;2023-05-07T07:10:23;17.77;;;15.90;;
13238;SDS011;6686;51.292;4.166;2023-05-07T07:13:09;17.80;;;15.83;;
13238;SDS011;6686;51.292;4.166;2023-05-07T07:15:55;17.53;;;15.50;;
13238;SDS011;6686;51.292;4.166;2023-05-07T07:18:41;18.73;;;16.70;;
13238;SDS011;6686;51.292;4.166;2023-05-07T07:21:27;18.92;;;17.02;;
13238;SDS011;6686;51.292;4.166;2023-05-07T07:24:14;15.02;;;13.30;;
13238;SDS011;6686;51.292;4.166;2023-05-07T07:26:59;14.67;;;13.10;;
13238;SDS011;6686;51.292;4.166;2023-05-07T07:29:46;14.43;;;12.93;;
13238;SDS011;6686;51.292;4.166;2023-05-07T07:32:32;15.07;;;13.65;;
13238;SDS011;6686;51.292;4.166;2023-05-07T07:35:18;13.77;;;12.47;;
13238;SDS011;6686;51.292;4.166;2023-05-07T07:38:04;13.77;;;11.67;;
13238;SDS011;6686;51.292;4.166;2023-05-07T07:40:49;14.60;;;10.63;;
13238;SDS011;6686;51.292;4.166;2023-05-07T07:43:35;12.87;;;10.87;;
13238;SDS011;6686;51.292;4.166;2023-05-07T07:46:21;13.77;;;12.40;;
13238;SDS011;6686;51.292;4.166;2023-05-07T07:49:07;15.30;;;11.77;;
13238;SDS011;6686;51.292;4.166;2023-05-07T07:51:54;12.00;;;10.63;;
13238;SDS011;6686;51.292;4.166;2023-05-07T07:54:40;12.43;;;9.90;;
13238;SDS011;6686;51.292;4.166;2023-05-07T07:57:25;11.73;;;9.07;;
13238;SDS011;6686;51.292;4.166;2023-05-07T08:00:11;12.90;;;10.70;;
13238;SDS011;6686;51.292;4.166;2023-05-07T08:02:57;11.17;;;8.87;;
13238;SDS011;6686;51.292;4.166;2023-05-07T08:05:47;9.43;;;8.23;;
13238;SDS011;6686;51.292;4.166;2023-05-07T08:08:32;10.63;;;7.67;;
13238;SDS011;6686;51.292;4.166;2023-05-07T08:11:18;9.40;;;7.30;;
13238;SDS011;6686;51.292;4.166;2023-05-07T08:14:04;10.43;;;6.93;;
13238;SDS011;6686;51.292;4.166;2023-05-07T08:16:50;9.87;;;6.33;;
13238;SDS011;6686;51.292;4.166;2023-05-07T08:19:36;12.47;;;7.20;;
13238;SDS011;6686;51.292;4.166;2023-05-07T08:22:22;11.07;;;7.50;;
13238;SDS011;6686;51.292;4.166;2023-05-07T08:25:08;9.40;;;7.17;;
13238;SDS011;6686;51.292;4.166;2023-05-07T08:27:54;9.07;;;6.75;;
13238;SDS011;6686;51.292;4.166;2023-05-07T08:30:40;9.13;;;7.53;;
13238;SDS011;6686;51.292;4.166;2023-05-07T08:33:26;11.20;;;7.20;;
13238;SDS011;6686;51.292;4.166;2023-05-07T08:36:12;12.07;;;8.37;;
13238;SDS011;6686;51.292;4.166;2023-05-07T08:38:58;12.47;;;8.57;;
13238;SDS011;6686;51.292;4.166;2023-05-07T08:41:44;13.27;;;8.70;;
13238;SDS011;6686;51.292;4.166;2023-05-07T08:44:32;8.70;;;7.20;;
13238;SDS011;6686;51.292;4.166;2023-05-07T08:47:15;10.07;;;6.80;;
13238;SDS011;6686;51.292;4.166;2023-05-07T08:50:01;10.77;;;5.90;;
13238;SDS011;6686;51.292;4.166;2023-05-07T08:52:47;11.40;;;6.47;;
13238;SDS011;6686;51.292;4.166;2023-05-07T08:55:33;7.50;;;5.40;;
13238;SDS011;6686;51.292;4.166;2023-05-07T08:58:19;10.83;;;6.73;;
13238;SDS011;6686;51.292;4.166;2023-05-07T09:01:09;11.43;;;7.87;;
13238;SDS011;6686;51.292;4.166;2023-05-07T09:04:00;9.57;;;7.77;;
13238;SDS011;6686;51.292;4.166;2023-05-07T09:06:45;9.37;;;7.43;;
13238;SDS011;6686;51.292;4.166;2023-05-07T09:09:34;12.00;;;8.33;;
13238;SDS011;6686;51.292;4.166;2023-05-07T09:12:20;12.02;;;8.85;;
13238;SDS011;6686;51.292;4.166;2023-05-07T09:15:06;10.63;;;7.83;;
13238;SDS011;6686;51.292;4.166;2023-05-07T09:17:53;11.47;;;7.67;;
13238;SDS011;6686;51.292;4.166;2023-05-07T09:20:39;9.07;;;6.87;;
13238;SDS011;6686;51.292;4.166;2023-05-07T09:23:25;9.43;;;7.13;;
13238;SDS011;6686;51.292;4.166;2023-05-07T09:26:10;13.00;;;7.77;;
13238;SDS011;6686;51.292;4.166;2023-05-07T09:28:57;8.73;;;7.43;;
13238;SDS011;6686;51.292;4.166;2023-05-07T09:31:42;10.37;;;8.13;;
13238;SDS011;6686;51.292;4.166;2023-05-07T09:34:29;10.40;;;8.50;;
13238;SDS011;6686;51.292;4.166;2023-05-07T09:37:14;10.52;;;9.20;;
13238;SDS011;6686;51.292;4.166;2023-05-07T09:40:00;10.33;;;7.87;;
13238;SDS011;6686;51.292;4.166;2023-05-07T09:42:46;11.17;;;8.83;;
13238;SDS011;6686;51.292;4.166;2023-05-07T09:45:32;9.97;;;7.70;;
13238;SDS011;6686;51.292;4.166;2023-05-07T09:48:18;8.83;;;7.03;;
13238;SDS011;6686;51.292;4.166;2023-05-07T09:51:06;9.23;;;7.60;;
13238;SDS011;6686;51.292;4.166;2023-05-07T09:53:50;8.87;;;6.73;;
13238;SDS011;6686;51.292;4.166;2023-05-07T09:56:35;8.10;;;7.20;;
13238;SDS011;6686;51.292;4.166;2023-05-07T09:59:22;9.90;;;6.53;;
13238;SDS011;6686;51.292;4.166;2023-05-07T10:02:08;9.20;;;6.70;;
13238;SDS011;6686;51.292;4.166;2023-05-07T10:04:54;9.30;;;6.50;;
13238;SDS011;6686;51.292;4.166;2023-05-07T10:07:40;10.20;;;6.90;;
13238;SDS011;6686;51.292;4.166;2023-05-07T10:10:26;12.73;;;6.90;;
13238;SDS011;6686;51.292;4.166;2023-05-07T10:13:11;12.70;;;7.20;;
13238;SDS011;6686;51.292;4.166;2023-05-07T10:15:57;6.77;;;5.83;;
13238;SDS011;6686;51.292;4.166;2023-05-07T10:18:43;9.00;;;7.23;;
13238;SDS011;6686;51.292;4.166;2023-05-07T10:21:29;10.53;;;6.97;;
13238;SDS011;6686;51.292;4.166;2023-05-07T10:24:19;8.97;;;7.10;;
13238;SDS011;6686;51.292;4.166;2023-05-07T10:27:02;10.67;;;6.90;;
13238;SDS011;6686;51.292;4.166;2023-05-07T10:32:53;9.60;;;6.17;;
13238;SDS011;6686;51.292;4.166;2023-05-07T10:35:40;8.23;;;5.80;;
13238;SDS011;6686;51.292;4.166;2023-05-07T10:38:26;8.20;;;5.57;;
13238;SDS011;6686;51.292;4.166;2023-05-07T10:41:12;7.20;;;5.90;;
13238;SDS011;6686;51.292;4.166;2023-05-07T10:43:57;5.00;;;4.50;;
13238;SDS011;6686;51.292;4.166;2023-05-07T10:46:43;8.03;;;5.60;;
13238;SDS011;6686;51.292;4.166;2023-05-07T10:49:29;6.33;;;5.20;;
13238;SDS011;6686;51.292;4.166;2023-05-07T10:52:18;5.17;;;4.10;;
13238;SDS011;6686;51.292;4.166;2023-05-07T11:01:07;4.93;;;3.97;;
13238;SDS011;6686;51.292;4.166;2023-05-07T11:15:33;5.13;;;4.23;;
13238;SDS011;6686;51.292;4.166;2023-05-07T11:18:19;5.90;;;4.47;;
13238;SDS011;6686;51.292;4.166;2023-05-07T11:21:05;7.40;;;4.30;;
13238;SDS011;6686;51.292;4.166;2023-05-07T11:26:44;7.13;;;4.27;;
13238;SDS011;6686;51.292;4.166;2023-05-07T11:29:29;5.67;;;3.90;;
13238;SDS011;6686;51.292;4.166;2023-05-07T11:32:15;6.83;;;4.07;;
13238;SDS011;6686;51.292;4.166;2023-05-07T11:35:01;6.53;;;4.10;;
13238;SDS011;6686;51.292;4.166;2023-05-07T11:37:47;5.05;;;4.10;;
13238;SDS011;6686;51.292;4.166;2023-05-07T11:40:33;6.13;;;4.23;;
13238;SDS011;6686;51.292;4.166;2023-05-07T11:43:19;6.57;;;4.50;;
13238;SDS011;6686;51.292;4.166;2023-05-07T11:46:08;4.40;;;4.00;;
13238;SDS011;6686;51.292;4.166;2023-05-07T11:48:53;6.47;;;4.20;;
13238;SDS011;6686;51.292;4.166;2023-05-07T11:51:39;7.67;;;4.40;;
13238;SDS011;6686;51.292;4.166;2023-05-07T11:54:25;4.43;;;3.90;;
13238;SDS011;6686;51.292;4.166;2023-05-07T11:57:14;5.60;;;3.70;;
13238;SDS011;6686;51.292;4.166;2023-05-07T12:00:00;7.40;;;4.30;;
13238;SDS011;6686;51.292;4.166;2023-05-07T12:02:49;5.33;;;3.57;;
13238;SDS011;6686;51.292;4.166;2023-05-07T12:05:35;5.40;;;3.80;;
13238;SDS011;6686;51.292;4.166;2023-05-07T12:08:21;6.13;;;3.50;;
13238;SDS011;6686;51.292;4.166;2023-05-07T12:11:07;4.60;;;3.43;;
13238;SDS011;6686;51.292;4.166;2023-05-07T12:13:53;5.90;;;3.50;;
13238;SDS011;6686;51.292;4.166;2023-05-07T12:16:39;6.17;;;3.80;;
13238;SDS011;6686;51.292;4.166;2023-05-07T12:19:24;4.22;;;3.50;;
13238;SDS011;6686;51.292;4.166;2023-05-07T12:22:10;4.47;;;3.60;;
13238;SDS011;6686;51.292;4.166;2023-05-07T12:24:57;4.33;;;3.17;;
13238;SDS011;6686;51.292;4.166;2023-05-07T12:27:42;6.53;;;3.87;;
13238;SDS011;6686;51.292;4.166;2023-05-07T12:30:28;4.70;;;3.60;;
13238;SDS011;6686;51.292;4.166;2023-05-07T12:33:17;5.57;;;3.25;;
13238;SDS011;6686;51.292;4.166;2023-05-07T12:36:06;4.27;;;2.77;;
13238;SDS011;6686;51.292;4.166;2023-05-07T12:38:51;5.60;;;2.60;;
13238;SDS011;6686;51.292;4.166;2023-05-07T12:41:56;5.28;;;2.72;;
13238;SDS011;6686;51.292;4.166;2023-05-07T12:44:41;4.47;;;2.97;;
13238;SDS011;6686;51.292;4.166;2023-05-07T12:47:27;5.27;;;2.93;;
13238;SDS011;6686;51.292;4.166;2023-05-07T12:50:13;2.93;;;2.53;;
13238;SDS011;6686;51.292;4.166;2023-05-07T12:52:59;3.87;;;2.30;;
13238;SDS011;6686;51.292;4.166;2023-05-07T12:55:46;3.85;;;2.67;;
13238;SDS011;6686;51.292;4.166;2023-05-07T12:58:35;3.67;;;2.77;;
13238;SDS011;6686;51.292;4.166;2023-05-07T13:01:20;3.57;;;2.90;;
13238;SDS011;6686;51.292;4.166;2023-05-07T13:04:06;4.13;;;2.60;;
13238;SDS011;6686;51.292;4.166;2023-05-07T13:06:52;3.30;;;1.93;;
13238;SDS011;6686;51.292;4.166;2023-05-07T13:09:38;4.30;;;2.37;;
13238;SDS011;6686;51.292;4.166;2023-05-07T13:12:24;5.30;;;2.60;;
13238;SDS011;6686;51.292;4.166;2023-05-07T13:15:09;5.17;;;2.80;;
13238;SDS011;6686;51.292;4.166;2023-05-07T13:17:55;5.20;;;2.97;;
13238;SDS011;6686;51.292;4.166;2023-05-07T13:20:41;3.87;;;2.53;;
13238;SDS011;6686;51.292;4.166;2023-05-07T13:23:27;4.03;;;2.70;;
13238;SDS011;6686;51.292;4.166;2023-05-07T13:26:14;4.10;;;2.63;;
13238;SDS011;6686;51.292;4.166;2023-05-07T13:29:00;4.97;;;2.67;;
13238;SDS011;6686;51.292;4.166;2023-05-07T13:31:46;3.20;;;2.33;;
13238;SDS011;6686;51.292;4.166;2023-05-07T13:34:32;5.33;;;2.93;;
13238;SDS011;6686;51.292;4.166;2023-05-07T13:37:18;3.45;;;2.53;;
13238;SDS011;6686;51.292;4.166;2023-05-07T13:40:04;4.57;;;3.60;;
13238;SDS011;6686;51.292;4.166;2023-05-07T13:42:51;4.97;;;3.13;;
13238;SDS011;6686;51.292;4.166;2023-05-07T13:45:36;3.80;;;3.07;;
13238;SDS011;6686;51.292;4.166;2023-05-07T13:48:22;4.18;;;2.97;;
13238;SDS011;6686;51.292;4.166;2023-05-07T13:51:09;5.03;;;2.90;;
13238;SDS011;6686;51.292;4.166;2023-05-07T13:53:55;4.23;;;2.80;;
13238;SDS011;6686;51.292;4.166;2023-05-07T13:56:40;4.30;;;2.77;;
13238;SDS011;6686;51.292;4.166;2023-05-07T13:59:26;3.30;;;2.27;;
13238;SDS011;6686;51.292;4.166;2023-05-07T14:02:12;3.63;;;2.30;;
13238;SDS011;6686;51.292;4.166;2023-05-07T14:04:58;3.87;;;2.43;;
13238;SDS011;6686;51.292;4.166;2023-05-07T14:07:44;2.93;;;2.30;;
13238;SDS011;6686;51.292;4.166;2023-05-07T14:10:30;3.47;;;2.30;;
13238;SDS011;6686;51.292;4.166;2023-05-07T14:13:17;5.13;;;2.57;;
13238;SDS011;6686;51.292;4.166;2023-05-07T14:16:03;3.37;;;2.77;;
13238;SDS011;6686;51.292;4.166;2023-05-07T14:18:48;5.60;;;2.67;;
13238;SDS011;6686;51.292;4.166;2023-05-07T14:21:34;3.57;;;2.57;;
13238;SDS011;6686;51.292;4.166;2023-05-07T14:24:20;3.97;;;2.30;;
13238;SDS011;6686;51.292;4.166;2023-05-07T14:27:06;6.13;;;2.20;;
13238;SDS011;6686;51.292;4.166;2023-05-07T14:29:51;3.17;;;2.00;;
13238;SDS011;6686;51.292;4.166;2023-05-07T14:32:37;1.90;;;1.80;;
13238;SDS011;6686;51.292;4.166;2023-05-07T14:35:23;3.00;;;2.67;;
13238;SDS011;6686;51.292;4.166;2023-05-07T14:38:09;4.27;;;2.60;;
13238;SDS011;6686;51.292;4.166;2023-05-07T14:40:55;3.80;;;3.00;;
13238;SDS011;6686;51.292;4.166;2023-05-07T14:43:41;3.33;;;2.77;;
13238;SDS011;6686;51.292;4.166;2023-05-07T14:46:27;5.00;;;3.03;;
13238;SDS011;6686;51.292;4.166;2023-05-07T14:49:13;4.87;;;2.90;;
13238;SDS011;6686;51.292;4.166;2023-05-07T14:51:58;5.73;;;3.30;;
13238;SDS011;6686;51.292;4.166;2023-05-07T14:54:44;4.23;;;2.70;;
13238;SDS011;6686;51.292;4.166;2023-05-07T14:57:31;4.03;;;3.00;;
13238;SDS011;6686;51.292;4.166;2023-05-07T15:00:16;5.10;;;2.73;;
13238;SDS011;6686;51.292;4.166;2023-05-07T15:03:06;3.57;;;2.60;;
13238;SDS011;6686;51.292;4.166;2023-05-07T15:05:51;3.30;;;2.40;;
13238;SDS011;6686;51.292;4.166;2023-05-07T15:08:37;3.00;;;2.30;;
13238;SDS011;6686;51.292;4.166;2023-05-07T15:11:23;4.47;;;2.47;;
13238;SDS011;6686;51.292;4.166;2023-05-07T15:14:09;3.87;;;2.73;;
13238;SDS011;6686;51.292;4.166;2023-05-07T15:16:55;2.80;;;2.20;;
13238;SDS011;6686;51.292;4.166;2023-05-07T15:19:41;6.57;;;2.83;;
13238;SDS011;6686;51.292;4.166;2023-05-07T15:22:27;3.20;;;2.60;;
13238;SDS011;6686;51.292;4.166;2023-05-07T15:25:13;4.30;;;2.27;;
13238;SDS011;6686;51.292;4.166;2023-05-07T15:27:58;4.87;;;2.40;;
13238;SDS011;6686;51.292;4.166;2023-05-07T15:30:44;4.10;;;2.17;;
13238;SDS011;6686;51.292;4.166;2023-05-07T15:33:30;3.33;;;1.90;;
13238;SDS011;6686;51.292;4.166;2023-05-07T15:36:17;3.27;;;2.13;;
13238;SDS011;6686;51.292;4.166;2023-05-07T15:39:03;2.07;;;1.80;;
13238;SDS011;6686;51.292;4.166;2023-05-07T15:41:48;2.37;;;1.87;;
13238;SDS011;6686;51.292;4.166;2023-05-07T15:44:35;2.07;;;1.70;;
13238;SDS011;6686;51.292;4.166;2023-05-07T15:47:21;1.70;;;1.60;;
13238;SDS011;6686;51.292;4.166;2023-05-07T15:50:07;1.87;;;1.57;;
13238;SDS011;6686;51.292;4.166;2023-05-07T15:52:53;2.93;;;2.10;;
13238;SDS011;6686;51.292;4.166;2023-05-07T15:55:39;2.53;;;1.87;;
13238;SDS011;6686;51.292;4.166;2023-05-07T15:58:25;2.70;;;2.30;;
13238;SDS011;6686;51.292;4.166;2023-05-07T16:01:11;2.70;;;2.03;;
13238;SDS011;6686;51.292;4.166;2023-05-07T16:03:57;2.93;;;2.20;;
13238;SDS011;6686;51.292;4.166;2023-05-07T16:06:43;4.13;;;2.40;;
13238;SDS011;6686;51.292;4.166;2023-05-07T16:09:29;3.80;;;2.27;;
13238;SDS011;6686;51.292;4.166;2023-05-07T16:12:14;2.30;;;2.10;;
13238;SDS011;6686;51.292;4.166;2023-05-07T16:15:01;3.13;;;2.20;;
13238;SDS011;6686;51.292;4.166;2023-05-07T16:17:47;4.10;;;2.53;;
13238;SDS011;6686;51.292;4.166;2023-05-07T16:20:33;4.50;;;2.00;;
13238;SDS011;6686;51.292;4.166;2023-05-07T16:23:19;1.80;;;1.40;;
13238;SDS011;6686;51.292;4.166;2023-05-07T16:26:05;4.10;;;2.30;;
13238;SDS011;6686;51.292;4.166;2023-05-07T16:28:50;2.20;;;1.90;;
13238;SDS011;6686;51.292;4.166;2023-05-07T16:31:37;3.50;;;2.30;;
13238;SDS011;6686;51.292;4.166;2023-05-07T16:34:23;4.17;;;2.23;;
13238;SDS011;6686;51.292;4.166;2023-05-07T16:37:09;3.50;;;2.77;;
13238;SDS011;6686;51.292;4.166;2023-05-07T16:39:55;3.17;;;2.30;;
13238;SDS011;6686;51.292;4.166;2023-05-07T16:42:41;3.07;;;2.30;;
13238;SDS011;6686;51.292;4.166;2023-05-07T16:45:28;5.20;;;2.97;;
13238;SDS011;6686;51.292;4.166;2023-05-07T16:48:14;6.83;;;3.60;;
13238;SDS011;6686;51.292;4.166;2023-05-07T16:51:00;6.63;;;4.00;;
13238;SDS011;6686;51.292;4.166;2023-05-07T16:53:46;6.87;;;4.13;;
13238;SDS011;6686;51.292;4.166;2023-05-07T16:56:31;9.73;;;5.90;;
13238;SDS011;6686;51.292;4.166;2023-05-07T16:59:17;13.33;;;10.80;;
13238;SDS011;6686;51.292;4.166;2023-05-07T17:02:04;15.23;;;11.47;;
13238;SDS011;6686;51.292;4.166;2023-05-07T17:04:49;24.97;;;15.90;;
13238;SDS011;6686;51.292;4.166;2023-05-07T17:07:35;24.85;;;20.73;;
13238;SDS011;6686;51.292;4.166;2023-05-07T17:10:21;24.27;;;20.23;;